sensor_id;sensor_type;location;lat;lon;timestamp;temperature;humidity
51476;DHT22;37554;50.362;7.568;2022-12-16T00:00:22;9.10;46.60
51476;DHT22;37554;50.362;7.568;2022-12-16T00:02:50;9.00;46.60
51476;DHT22;37554;50.362;7.568;2022-12-16T00:05:16;9.00;46.60
51476;DHT22;37554;50.362;7.568;2022-12-16T00:07:44;9.00;46.70
51476;DHT22;37554;50.362;7.568;2022-12-16T00:10:10;9.00;46.80
51476;DHT22;37554;50.362;7.568;2022-12-16T00:12:36;9.00;46.80
51476;DHT22;37554;50.362;7.568;2022-12-16T00:15:01;9.00;46.70
51476;DHT22;37554;50.362;7.568;2022-12-16T00:17:27;9.00;46.70
51476;DHT22;37554;50.362;7.568;2022-12-16T00:19:53;9.00;46.60
51476;DHT22;37554;50.362;7.568;2022-12-16T00:22:18;9.00;46.60
51476;DHT22;37554;50.362;7.568;2022-12-16T00:24:44;9.00;46.60
51476;DHT22;37554;50.362;7.568;2022-12-16T00:27:09;9.00;46.60
51476;DHT22;37554;50.362;7.568;2022-12-16T00:29:35;9.00;46.60
51476;DHT22;37554;50.362;7.568;2022-12-16T00:32:01;9.00;46.70
51476;DHT22;37554;50.362;7.568;2022-12-16T00:34:27;8.90;46.70
51476;DHT22;37554;50.362;7.568;2022-12-16T00:36:53;8.90;46.70
51476;DHT22;37554;50.362;7.568;2022-12-16T00:39:18;8.90;46.70
51476;DHT22;37554;50.362;7.568;2022-12-16T00:41:44;8.90;46.70
51476;DHT22;37554;50.362;7.568;2022-12-16T00:44:12;8.90;46.70
51476;DHT22;37554;50.362;7.568;2022-12-16T00:46:37;8.80;46.70
51476;DHT22;37554;50.362;7.568;2022-12-16T00:49:04;8.80;46.70
51476;DHT22;37554;50.362;7.568;2022-12-16T00:51:30;8.80;46.70
51476;DHT22;37554;50.362;7.568;2022-12-16T00:53:55;8.70;46.60
51476;DHT22;37554;50.362;7.568;2022-12-16T00:56:21;8.80;46.70
51476;DHT22;37554;50.362;7.568;2022-12-16T00:58:47;8.80;46.70
51476;DHT22;37554;50.362;7.568;2022-12-16T01:01:12;8.80;46.50
51476;DHT22;37554;50.362;7.568;2022-12-16T01:03:38;8.80;46.60
51476;DHT22;37554;50.362;7.568;2022-12-16T01:06:13;8.80;46.50
51476;DHT22;37554;50.362;7.568;2022-12-16T01:08:39;8.70;46.50
51476;DHT22;37554;50.362;7.568;2022-12-16T01:11:13;8.70;46.50
51476;DHT22;37554;50.362;7.568;2022-12-16T01:13:39;8.70;46.50
51476;DHT22;37554;50.362;7.568;2022-12-16T01:16:05;8.70;46.50
51476;DHT22;37554;50.362;7.568;2022-12-16T01:18:30;8.70;46.50
51476;DHT22;37554;50.362;7.568;2022-12-16T01:21:05;8.70;47.10
51476;DHT22;37554;50.362;7.568;2022-12-16T01:23:31;8.60;46.50
51476;DHT22;37554;50.362;7.568;2022-12-16T01:25:58;8.60;46.50
51476;DHT22;37554;50.362;7.568;2022-12-16T01:28:25;8.60;46.50
51476;DHT22;37554;50.362;7.568;2022-12-16T01:30:59;8.60;46.50
51476;DHT22;37554;50.362;7.568;2022-12-16T01:33:30;8.60;46.40
51476;DHT22;37554;50.362;7.568;2022-12-16T01:36:04;8.60;46.40
51476;DHT22;37554;50.362;7.568;2022-12-16T01:38:31;8.60;46.40
51476;DHT22;37554;50.362;7.568;2022-12-16T01:40:57;8.60;46.40
51476;DHT22;37554;50.362;7.568;2022-12-16T01:43:28;8.60;46.20
51476;DHT22;37554;50.362;7.568;2022-12-16T01:48:48;8.60;46.20
51476;DHT22;37554;50.362;7.568;2022-12-16T01:51:25;8.50;46.10
51476;DHT22;37554;50.362;7.568;2022-12-16T01:54:00;8.50;46.10
51476;DHT22;37554;50.362;7.568;2022-12-16T01:56:27;8.50;46.30
51476;DHT22;37554;50.362;7.568;2022-12-16T01:58:55;8.50;46.20
51476;DHT22;37554;50.362;7.568;2022-12-16T02:01:21;8.50;46.10
51476;DHT22;37554;50.362;7.568;2022-12-16T02:03:48;8.50;46.20
51476;DHT22;37554;50.362;7.568;2022-12-16T02:06:14;8.50;46.10
51476;DHT22;37554;50.362;7.568;2022-12-16T02:08:40;8.50;46.10
51476;DHT22;37554;50.362;7.568;2022-12-16T02:11:18;8.50;46.20
51476;DHT22;37554;50.362;7.568;2022-12-16T02:17:03;8.50;46.10
51476;DHT22;37554;50.362;7.568;2022-12-16T02:25:46;8.40;46.00
51476;DHT22;37554;50.362;7.568;2022-12-16T02:34:29;8.40;46.10
51476;DHT22;37554;50.362;7.568;2022-12-16T02:37:50;8.40;46.10
51476;DHT22;37554;50.362;7.568;2022-12-16T02:40:31;8.40;45.80
51476;DHT22;37554;50.362;7.568;2022-12-16T02:43:06;8.40;46.00
51476;DHT22;37554;50.362;7.568;2022-12-16T02:45:34;8.40;46.10
51476;DHT22;37554;50.362;7.568;2022-12-16T02:48:00;8.40;46.10
51476;DHT22;37554;50.362;7.568;2022-12-16T02:50:31;8.40;46.10
51476;DHT22;37554;50.362;7.568;2022-12-16T02:52:59;8.30;46.00
51476;DHT22;37554;50.362;7.568;2022-12-16T02:58:20;8.30;46.00
51476;DHT22;37554;50.362;7.568;2022-12-16T03:01:05;8.30;46.00
51476;DHT22;37554;50.362;7.568;2022-12-16T03:03:41;8.30;46.00
51476;DHT22;37554;50.362;7.568;2022-12-16T03:06:08;8.30;45.70
51476;DHT22;37554;50.362;7.568;2022-12-16T03:08:39;8.20;46.00
51476;DHT22;37554;50.362;7.568;2022-12-16T03:11:06;8.20;46.00
51476;DHT22;37554;50.362;7.568;2022-12-16T03:13:48;8.30;46.00
51476;DHT22;37554;50.362;7.568;2022-12-16T03:16:17;8.30;45.90
51476;DHT22;37554;50.362;7.568;2022-12-16T03:18:47;8.20;46.00
51476;DHT22;37554;50.362;7.568;2022-12-16T03:21:15;8.20;46.00
51476;DHT22;37554;50.362;7.568;2022-12-16T03:23:57;8.20;45.90
51476;DHT22;37554;50.362;7.568;2022-12-16T03:26:29;8.20;46.00
51476;DHT22;37554;50.362;7.568;2022-12-16T03:29:01;8.20;46.00
51476;DHT22;37554;50.362;7.568;2022-12-16T03:37:08;8.10;45.80
51476;DHT22;37554;50.362;7.568;2022-12-16T03:39:44;8.10;45.90
51476;DHT22;37554;50.362;7.568;2022-12-16T03:42:13;8.10;45.90
51476;DHT22;37554;50.362;7.568;2022-12-16T03:44:42;8.10;45.90
51476;DHT22;37554;50.362;7.568;2022-12-16T03:47:08;8.10;45.90
51476;DHT22;37554;50.362;7.568;2022-12-16T03:49:33;8.10;45.80
51476;DHT22;37554;50.362;7.568;2022-12-16T03:51:59;8.10;45.80
51476;DHT22;37554;50.362;7.568;2022-12-16T03:54:25;8.10;45.70
51476;DHT22;37554;50.362;7.568;2022-12-16T03:56:51;8.10;45.70
51476;DHT22;37554;50.362;7.568;2022-12-16T03:59:16;8.10;45.70
51476;DHT22;37554;50.362;7.568;2022-12-16T04:01:42;8.10;45.80
51476;DHT22;37554;50.362;7.568;2022-12-16T04:04:08;8.10;45.80
51476;DHT22;37554;50.362;7.568;2022-12-16T04:06:34;8.00;45.80
51476;DHT22;37554;50.362;7.568;2022-12-16T04:08:59;8.00;45.80
51476;DHT22;37554;50.362;7.568;2022-12-16T04:11:25;8.00;46.10
51476;DHT22;37554;50.362;7.568;2022-12-16T04:14:09;8.00;45.90
51476;DHT22;37554;50.362;7.568;2022-12-16T04:16:54;8.10;45.80
51476;DHT22;37554;50.362;7.568;2022-12-16T04:19:38;8.00;45.70
51476;DHT22;37554;50.362;7.568;2022-12-16T04:22:29;8.00;45.70
51476;DHT22;37554;50.362;7.568;2022-12-16T04:25:23;8.00;46.40
51476;DHT22;37554;50.362;7.568;2022-12-16T04:27:49;8.00;45.70
51476;DHT22;37554;50.362;7.568;2022-12-16T04:30:17;8.00;45.70
51476;DHT22;37554;50.362;7.568;2022-12-16T04:32:43;8.00;45.80
51476;DHT22;37554;50.362;7.568;2022-12-16T04:35:27;8.00;45.80
51476;DHT22;37554;50.362;7.568;2022-12-16T04:38:12;7.90;45.80
51476;DHT22;37554;50.362;7.568;2022-12-16T04:40:56;7.90;45.80
51476;DHT22;37554;50.362;7.568;2022-12-16T04:43:40;7.90;45.80
51476;DHT22;37554;50.362;7.568;2022-12-16T04:46:24;7.90;45.80
51476;DHT22;37554;50.362;7.568;2022-12-16T04:49:08;7.90;45.80
51476;DHT22;37554;50.362;7.568;2022-12-16T04:51:52;7.90;45.80
51476;DHT22;37554;50.362;7.568;2022-12-16T04:54:36;7.90;45.80
51476;DHT22;37554;50.362;7.568;2022-12-16T04:57:20;7.90;45.80
51476;DHT22;37554;50.362;7.568;2022-12-16T05:00:05;7.90;45.70
51476;DHT22;37554;50.362;7.568;2022-12-16T05:02:49;7.90;45.70
51476;DHT22;37554;50.362;7.568;2022-12-16T05:05:33;7.90;45.80
51476;DHT22;37554;50.362;7.568;2022-12-16T05:08:17;7.80;45.80
51476;DHT22;37554;50.362;7.568;2022-12-16T05:11:22;7.80;45.80
51476;DHT22;37554;50.362;7.568;2022-12-16T05:14:06;7.70;45.70
51476;DHT22;37554;50.362;7.568;2022-12-16T05:16:50;7.70;45.70
51476;DHT22;37554;50.362;7.568;2022-12-16T05:19:35;7.60;45.80
51476;DHT22;37554;50.362;7.568;2022-12-16T05:22:19;7.60;45.80
51476;DHT22;37554;50.362;7.568;2022-12-16T05:25:03;7.60;46.00
51476;DHT22;37554;50.362;7.568;2022-12-16T05:27:51;7.50;45.90
51476;DHT22;37554;50.362;7.568;2022-12-16T05:30:36;7.50;46.10
51476;DHT22;37554;50.362;7.568;2022-12-16T05:33:20;7.50;46.00
51476;DHT22;37554;50.362;7.568;2022-12-16T05:36:04;7.60;45.80
51476;DHT22;37554;50.362;7.568;2022-12-16T05:38:48;7.70;45.70
51476;DHT22;37554;50.362;7.568;2022-12-16T05:41:32;7.80;45.70
51476;DHT22;37554;50.362;7.568;2022-12-16T05:44:16;7.90;45.50
51476;DHT22;37554;50.362;7.568;2022-12-16T05:47:00;8.00;45.30
51476;DHT22;37554;50.362;7.568;2022-12-16T05:49:55;8.10;45.10
51476;DHT22;37554;50.362;7.568;2022-12-16T05:52:40;8.20;45.00
51476;DHT22;37554;50.362;7.568;2022-12-16T05:55:24;8.30;44.80
51476;DHT22;37554;50.362;7.568;2022-12-16T05:58:08;8.40;44.70
51476;DHT22;37554;50.362;7.568;2022-12-16T06:00:53;8.40;44.70
51476;DHT22;37554;50.362;7.568;2022-12-16T06:03:37;8.50;44.60
51476;DHT22;37554;50.362;7.568;2022-12-16T06:06:21;8.50;44.50
51476;DHT22;37554;50.362;7.568;2022-12-16T06:09:05;8.60;44.50
51476;DHT22;37554;50.362;7.568;2022-12-16T06:11:50;8.60;44.40
51476;DHT22;37554;50.362;7.568;2022-12-16T06:14:35;8.60;44.30
51476;DHT22;37554;50.362;7.568;2022-12-16T06:17:20;8.70;44.30
51476;DHT22;37554;50.362;7.568;2022-12-16T06:20:05;8.80;44.20
51476;DHT22;37554;50.362;7.568;2022-12-16T06:22:53;8.80;44.10
51476;DHT22;37554;50.362;7.568;2022-12-16T06:25:38;8.80;44.10
51476;DHT22;37554;50.362;7.568;2022-12-16T06:28:22;8.90;44.60
51476;DHT22;37554;50.362;7.568;2022-12-16T06:31:07;8.90;44.00
51476;DHT22;37554;50.362;7.568;2022-12-16T06:33:52;8.90;43.90
51476;DHT22;37554;50.362;7.568;2022-12-16T06:36:36;8.90;43.90
51476;DHT22;37554;50.362;7.568;2022-12-16T06:39:20;9.00;43.90
51476;DHT22;37554;50.362;7.568;2022-12-16T06:42:05;9.00;43.80
51476;DHT22;37554;50.362;7.568;2022-12-16T06:44:48;8.80;42.90
51476;DHT22;37554;50.362;7.568;2022-12-16T06:47:33;8.30;46.50
51476;DHT22;37554;50.362;7.568;2022-12-16T06:50:17;8.50;46.80
51476;DHT22;37554;50.362;7.568;2022-12-16T06:53:01;8.70;46.30
51476;DHT22;37554;50.362;7.568;2022-12-16T06:55:45;8.80;45.60
51476;DHT22;37554;50.362;7.568;2022-12-16T06:58:29;8.90;45.30
51476;DHT22;37554;50.362;7.568;2022-12-16T07:01:13;9.00;45.10
51476;DHT22;37554;50.362;7.568;2022-12-16T07:03:58;9.10;44.90
51476;DHT22;37554;50.362;7.568;2022-12-16T07:06:42;9.10;44.70
51476;DHT22;37554;50.362;7.568;2022-12-16T07:09:26;9.10;44.60
51476;DHT22;37554;50.362;7.568;2022-12-16T07:12:10;9.10;44.60
51476;DHT22;37554;50.362;7.568;2022-12-16T07:14:54;9.10;44.30
51476;DHT22;37554;50.362;7.568;2022-12-16T07:17:39;9.00;44.00
51476;DHT22;37554;50.362;7.568;2022-12-16T07:20:23;9.00;44.10
51476;DHT22;37554;50.362;7.568;2022-12-16T07:23:07;9.00;44.20
51476;DHT22;37554;50.362;7.568;2022-12-16T07:25:52;9.10;44.00
51476;DHT22;37554;50.362;7.568;2022-12-16T07:28:36;9.20;44.00
51476;DHT22;37554;50.362;7.568;2022-12-16T07:31:20;9.20;43.90
51476;DHT22;37554;50.362;7.568;2022-12-16T07:34:04;9.30;43.80
51476;DHT22;37554;50.362;7.568;2022-12-16T07:36:48;9.30;43.70
51476;DHT22;37554;50.362;7.568;2022-12-16T07:39:32;9.30;43.60
51476;DHT22;37554;50.362;7.568;2022-12-16T07:42:16;9.40;43.60
51476;DHT22;37554;50.362;7.568;2022-12-16T07:45:00;9.40;43.50
51476;DHT22;37554;50.362;7.568;2022-12-16T07:47:49;9.40;44.10
51476;DHT22;37554;50.362;7.568;2022-12-16T07:50:33;9.40;43.30
51476;DHT22;37554;50.362;7.568;2022-12-16T07:53:18;9.40;43.20
51476;DHT22;37554;50.362;7.568;2022-12-16T07:56:02;9.40;43.20
51476;DHT22;37554;50.362;7.568;2022-12-16T07:58:46;9.50;43.10
51476;DHT22;37554;50.362;7.568;2022-12-16T08:01:30;9.50;43.10
51476;DHT22;37554;50.362;7.568;2022-12-16T08:04:14;9.50;43.10
51476;DHT22;37554;50.362;7.568;2022-12-16T08:06:59;9.50;42.90
51476;DHT22;37554;50.362;7.568;2022-12-16T08:09:43;9.50;42.80
51476;DHT22;37554;50.362;7.568;2022-12-16T08:12:27;9.50;42.80
51476;DHT22;37554;50.362;7.568;2022-12-16T08:15:12;9.50;42.70
51476;DHT22;37554;50.362;7.568;2022-12-16T08:17:56;9.60;42.80
51476;DHT22;37554;50.362;7.568;2022-12-16T08:20:40;9.60;42.60
51476;DHT22;37554;50.362;7.568;2022-12-16T08:23:24;9.60;42.60
51476;DHT22;37554;50.362;7.568;2022-12-16T08:26:08;9.60;42.50
51476;DHT22;37554;50.362;7.568;2022-12-16T08:28:52;9.60;42.50
51476;DHT22;37554;50.362;7.568;2022-12-16T08:31:37;9.60;42.50
51476;DHT22;37554;50.362;7.568;2022-12-16T08:34:21;9.60;42.30
51476;DHT22;37554;50.362;7.568;2022-12-16T08:37:06;9.60;42.30
51476;DHT22;37554;50.362;7.568;2022-12-16T08:39:50;9.70;42.30
51476;DHT22;37554;50.362;7.568;2022-12-16T08:42:34;9.70;42.30
51476;DHT22;37554;50.362;7.568;2022-12-16T08:45:19;9.70;42.30
51476;DHT22;37554;50.362;7.568;2022-12-16T08:48:03;9.70;42.10
51476;DHT22;37554;50.362;7.568;2022-12-16T08:50:47;9.80;42.00
51476;DHT22;37554;50.362;7.568;2022-12-16T08:53:31;9.80;42.00
51476;DHT22;37554;50.362;7.568;2022-12-16T08:56:15;9.80;41.90
51476;DHT22;37554;50.362;7.568;2022-12-16T08:58:59;9.80;41.90
51476;DHT22;37554;50.362;7.568;2022-12-16T09:01:43;9.80;41.90
51476;DHT22;37554;50.362;7.568;2022-12-16T09:04:27;9.90;41.90
51476;DHT22;37554;50.362;7.568;2022-12-16T09:07:12;9.90;41.80
51476;DHT22;37554;50.362;7.568;2022-12-16T09:09:56;9.90;41.70
51476;DHT22;37554;50.362;7.568;2022-12-16T09:12:44;9.80;41.50
51476;DHT22;37554;50.362;7.568;2022-12-16T09:15:29;9.70;41.40
51476;DHT22;37554;50.362;7.568;2022-12-16T09:18:13;9.70;41.50
51476;DHT22;37554;50.362;7.568;2022-12-16T09:20:57;9.70;41.70
51476;DHT22;37554;50.362;7.568;2022-12-16T09:23:42;9.80;42.00
51476;DHT22;37554;50.362;7.568;2022-12-16T09:26:26;9.90;43.10
51476;DHT22;37554;50.362;7.568;2022-12-16T09:29:10;10.00;42.40
51476;DHT22;37554;50.362;7.568;2022-12-16T09:31:54;10.00;42.30
51476;DHT22;37554;50.362;7.568;2022-12-16T09:34:38;10.00;42.10
51476;DHT22;37554;50.362;7.568;2022-12-16T09:37:22;10.00;42.10
51476;DHT22;37554;50.362;7.568;2022-12-16T09:40:10;10.10;42.00
51476;DHT22;37554;50.362;7.568;2022-12-16T09:43:16;10.10;42.00
51476;DHT22;37554;50.362;7.568;2022-12-16T09:46:23;10.20;42.00
51476;DHT22;37554;50.362;7.568;2022-12-16T09:52:05;10.20;41.90
51476;DHT22;37554;50.362;7.568;2022-12-16T09:54:52;10.20;41.80
51476;DHT22;37554;50.362;7.568;2022-12-16T09:57:37;10.30;41.80
51476;DHT22;37554;50.362;7.568;2022-12-16T10:00:23;10.30;41.70
51476;DHT22;37554;50.362;7.568;2022-12-16T10:03:22;10.30;41.80
51476;DHT22;37554;50.362;7.568;2022-12-16T10:06:43;10.30;41.70
51476;DHT22;37554;50.362;7.568;2022-12-16T10:09:53;10.30;41.50
51476;DHT22;37554;50.362;7.568;2022-12-16T10:18:57;10.40;41.60
51476;DHT22;37554;50.362;7.568;2022-12-16T10:22:09;10.40;41.60
51476;DHT22;37554;50.362;7.568;2022-12-16T10:25:27;10.40;41.50
51476;DHT22;37554;50.362;7.568;2022-12-16T10:28:21;10.40;41.50
51476;DHT22;37554;50.362;7.568;2022-12-16T10:31:12;10.40;41.50
51476;DHT22;37554;50.362;7.568;2022-12-16T10:33:58;10.40;41.50
51476;DHT22;37554;50.362;7.568;2022-12-16T10:36:43;10.50;41.50
51476;DHT22;37554;50.362;7.568;2022-12-16T10:39:43;10.50;41.40
51476;DHT22;37554;50.362;7.568;2022-12-16T10:42:32;10.50;41.30
51476;DHT22;37554;50.362;7.568;2022-12-16T10:45:29;10.50;41.40
51476;DHT22;37554;50.362;7.568;2022-12-16T10:48:19;10.50;41.30
51476;DHT22;37554;50.362;7.568;2022-12-16T10:51:12;10.60;41.40
51476;DHT22;37554;50.362;7.568;2022-12-16T10:54:00;10.50;41.30
51476;DHT22;37554;50.362;7.568;2022-12-16T10:57:05;10.60;41.40
51476;DHT22;37554;50.362;7.568;2022-12-16T11:00:19;10.60;41.30
51476;DHT22;37554;50.362;7.568;2022-12-16T11:03:25;10.60;41.00
51476;DHT22;37554;50.362;7.568;2022-12-16T11:06:10;10.60;41.00
51476;DHT22;37554;50.362;7.568;2022-12-16T11:08:55;10.50;41.00
51476;DHT22;37554;50.362;7.568;2022-12-16T11:11:51;10.50;41.00
51476;DHT22;37554;50.362;7.568;2022-12-16T11:14:36;10.50;41.00
51476;DHT22;37554;50.362;7.568;2022-12-16T11:20:25;10.40;40.70
51476;DHT22;37554;50.362;7.568;2022-12-16T11:23:21;10.50;40.50
51476;DHT22;37554;50.362;7.568;2022-12-16T11:29:13;10.30;40.50
51476;DHT22;37554;50.362;7.568;2022-12-16T11:32:02;10.30;40.10
51476;DHT22;37554;50.362;7.568;2022-12-16T11:34:55;10.20;40.40
51476;DHT22;37554;50.362;7.568;2022-12-16T11:37:41;10.20;40.50
51476;DHT22;37554;50.362;7.568;2022-12-16T11:40:27;10.30;40.50
51476;DHT22;37554;50.362;7.568;2022-12-16T11:43:14;10.30;40.60
51476;DHT22;37554;50.362;7.568;2022-12-16T11:46:02;10.40;40.60
51476;DHT22;37554;50.362;7.568;2022-12-16T11:48:51;10.50;40.60
51476;DHT22;37554;50.362;7.568;2022-12-16T11:51:38;10.50;40.60
51476;DHT22;37554;50.362;7.568;2022-12-16T11:54:26;10.60;40.60
51476;DHT22;37554;50.362;7.568;2022-12-16T11:57:29;10.70;40.50
51476;DHT22;37554;50.362;7.568;2022-12-16T12:00:15;10.80;40.50
51476;DHT22;37554;50.362;7.568;2022-12-16T12:03:09;10.80;40.50
51476;DHT22;37554;50.362;7.568;2022-12-16T12:06:06;10.90;40.60
51476;DHT22;37554;50.362;7.568;2022-12-16T12:09:14;10.90;40.60
51476;DHT22;37554;50.362;7.568;2022-12-16T12:17:50;10.90;40.70
51476;DHT22;37554;50.362;7.568;2022-12-16T12:26:34;10.90;40.70
51476;DHT22;37554;50.362;7.568;2022-12-16T12:32:56;10.80;40.60
51476;DHT22;37554;50.362;7.568;2022-12-16T12:36:01;10.80;40.80
51476;DHT22;37554;50.362;7.568;2022-12-16T12:41:50;10.90;40.90
51476;DHT22;37554;50.362;7.568;2022-12-16T12:48:22;10.90;40.90
51476;DHT22;37554;50.362;7.568;2022-12-16T12:51:27;10.90;40.20
51476;DHT22;37554;50.362;7.568;2022-12-16T12:57:39;10.30;44.40
51476;DHT22;37554;50.362;7.568;2022-12-16T13:00:26;10.70;43.10
51476;DHT22;37554;50.362;7.568;2022-12-16T13:03:49;11.00;42.50
51476;DHT22;37554;50.362;7.568;2022-12-16T13:06:34;11.30;41.80
51476;DHT22;37554;50.362;7.568;2022-12-16T13:09:27;11.50;41.40
51476;DHT22;37554;50.362;7.568;2022-12-16T13:15:07;11.70;40.80
51476;DHT22;37554;50.362;7.568;2022-12-16T13:23:40;11.90;40.40
51476;DHT22;37554;50.362;7.568;2022-12-16T13:26:27;12.10;40.40
51476;DHT22;37554;50.362;7.568;2022-12-16T13:41:01;12.10;40.70
51476;DHT22;37554;50.362;7.568;2022-12-16T13:43:55;12.00;40.50
51476;DHT22;37554;50.362;7.568;2022-12-16T13:46:45;11.90;40.70
51476;DHT22;37554;50.362;7.568;2022-12-16T13:49:46;11.80;40.60
51476;DHT22;37554;50.362;7.568;2022-12-16T13:55:55;11.70;40.60
51476;DHT22;37554;50.362;7.568;2022-12-16T13:59:04;11.60;40.50
51476;DHT22;37554;50.362;7.568;2022-12-16T14:01:52;11.50;40.90
51476;DHT22;37554;50.362;7.568;2022-12-16T14:04:42;11.40;41.00
51476;DHT22;37554;50.362;7.568;2022-12-16T14:07:29;11.30;41.70
51476;DHT22;37554;50.362;7.568;2022-12-16T14:10:40;11.20;41.10
51476;DHT22;37554;50.362;7.568;2022-12-16T14:19:45;11.20;41.10
51476;DHT22;37554;50.362;7.568;2022-12-16T14:22:57;11.20;41.10
51476;DHT22;37554;50.362;7.568;2022-12-16T14:25:44;11.20;41.10
51476;DHT22;37554;50.362;7.568;2022-12-16T14:28:35;11.30;41.10
51476;DHT22;37554;50.362;7.568;2022-12-16T14:31:28;11.30;41.10
51476;DHT22;37554;50.362;7.568;2022-12-16T14:34:16;11.40;41.10
51476;DHT22;37554;50.362;7.568;2022-12-16T14:37:16;11.60;42.00
51476;DHT22;37554;50.362;7.568;2022-12-16T14:40:02;11.60;41.50
51476;DHT22;37554;50.362;7.568;2022-12-16T14:42:51;11.60;41.50
51476;DHT22;37554;50.362;7.568;2022-12-16T14:45:36;11.50;41.40
51476;DHT22;37554;50.362;7.568;2022-12-16T14:54:24;11.30;41.50
51476;DHT22;37554;50.362;7.568;2022-12-16T14:57:15;11.10;41.60
51476;DHT22;37554;50.362;7.568;2022-12-16T15:00:20;11.00;41.60
51476;DHT22;37554;50.362;7.568;2022-12-16T15:03:27;10.90;41.30
51476;DHT22;37554;50.362;7.568;2022-12-16T15:06:37;10.80;41.50
51476;DHT22;37554;50.362;7.568;2022-12-16T15:09:42;10.70;41.60
51476;DHT22;37554;50.362;7.568;2022-12-16T15:12:33;10.60;41.70
51476;DHT22;37554;50.362;7.568;2022-12-16T15:15:34;10.50;41.70
51476;DHT22;37554;50.362;7.568;2022-12-16T15:18:24;10.50;41.80
51476;DHT22;37554;50.362;7.568;2022-12-16T15:21:09;10.40;41.70
51476;DHT22;37554;50.362;7.568;2022-12-16T15:23:55;10.40;41.70
51476;DHT22;37554;50.362;7.568;2022-12-16T15:26:39;10.40;41.70
51476;DHT22;37554;50.362;7.568;2022-12-16T15:29:25;10.30;41.50
51476;DHT22;37554;50.362;7.568;2022-12-16T15:32:34;10.30;41.50
51476;DHT22;37554;50.362;7.568;2022-12-16T15:35:26;10.40;41.40
51476;DHT22;37554;50.362;7.568;2022-12-16T15:38:28;10.40;41.40
51476;DHT22;37554;50.362;7.568;2022-12-16T15:41:23;10.30;41.40
51476;DHT22;37554;50.362;7.568;2022-12-16T15:44:17;10.30;41.40
51476;DHT22;37554;50.362;7.568;2022-12-16T15:47:02;10.30;41.40
51476;DHT22;37554;50.362;7.568;2022-12-16T15:49:47;10.30;41.40
51476;DHT22;37554;50.362;7.568;2022-12-16T15:52:41;10.30;41.30
51476;DHT22;37554;50.362;7.568;2022-12-16T15:55:28;10.30;41.40
51476;DHT22;37554;50.362;7.568;2022-12-16T16:01:03;10.30;41.40
51476;DHT22;37554;50.362;7.568;2022-12-16T16:03:57;10.20;41.30
51476;DHT22;37554;50.362;7.568;2022-12-16T16:06:46;10.20;41.30
51476;DHT22;37554;50.362;7.568;2022-12-16T16:09:32;10.20;41.40
51476;DHT22;37554;50.362;7.568;2022-12-16T16:12:19;10.10;41.30
51476;DHT22;37554;50.362;7.568;2022-12-16T16:15:05;10.10;41.30
51476;DHT22;37554;50.362;7.568;2022-12-16T16:17:57;10.10;41.40
51476;DHT22;37554;50.362;7.568;2022-12-16T16:20:42;10.10;41.40
51476;DHT22;37554;50.362;7.568;2022-12-16T16:23:27;10.00;41.40
51476;DHT22;37554;50.362;7.568;2022-12-16T16:26:13;10.00;41.40
51476;DHT22;37554;50.362;7.568;2022-12-16T16:28:58;10.00;41.50
51476;DHT22;37554;50.362;7.568;2022-12-16T16:31:43;10.00;41.50
51476;DHT22;37554;50.362;7.568;2022-12-16T16:34:27;10.00;41.50
51476;DHT22;37554;50.362;7.568;2022-12-16T16:37:16;9.90;42.20
51476;DHT22;37554;50.362;7.568;2022-12-16T16:40:01;9.80;42.30
51476;DHT22;37554;50.362;7.568;2022-12-16T16:42:54;9.80;42.20
51476;DHT22;37554;50.362;7.568;2022-12-16T16:45:38;9.80;42.40
51476;DHT22;37554;50.362;7.568;2022-12-16T16:48:22;9.90;42.30
51476;DHT22;37554;50.362;7.568;2022-12-16T16:51:06;9.90;42.20
51476;DHT22;37554;50.362;7.568;2022-12-16T16:53:50;10.00;42.20
51476;DHT22;37554;50.362;7.568;2022-12-16T16:56:35;10.00;42.20
51476;DHT22;37554;50.362;7.568;2022-12-16T16:59:22;10.10;42.20
51476;DHT22;37554;50.362;7.568;2022-12-16T17:02:17;10.10;42.10
51476;DHT22;37554;50.362;7.568;2022-12-16T17:05:02;10.10;42.10
51476;DHT22;37554;50.362;7.568;2022-12-16T17:07:46;10.10;42.00
51476;DHT22;37554;50.362;7.568;2022-12-16T17:10:30;10.10;42.10
51476;DHT22;37554;50.362;7.568;2022-12-16T17:13:14;10.10;42.00
51476;DHT22;37554;50.362;7.568;2022-12-16T17:15:58;10.10;42.00
51476;DHT22;37554;50.362;7.568;2022-12-16T17:18:42;10.10;42.00
51476;DHT22;37554;50.362;7.568;2022-12-16T17:21:27;10.10;42.00
51476;DHT22;37554;50.362;7.568;2022-12-16T17:24:11;10.10;41.90
51476;DHT22;37554;50.362;7.568;2022-12-16T17:26:55;10.10;42.00
51476;DHT22;37554;50.362;7.568;2022-12-16T17:29:39;10.10;42.20
51476;DHT22;37554;50.362;7.568;2022-12-16T17:32:23;10.20;43.00
51476;DHT22;37554;50.362;7.568;2022-12-16T17:35:09;10.20;42.90
51476;DHT22;37554;50.362;7.568;2022-12-16T17:37:54;10.20;42.70
51476;DHT22;37554;50.362;7.568;2022-12-16T17:40:38;10.20;42.70
51476;DHT22;37554;50.362;7.568;2022-12-16T17:43:22;10.10;42.60
51476;DHT22;37554;50.362;7.568;2022-12-16T17:46:09;10.10;42.60
51476;DHT22;37554;50.362;7.568;2022-12-16T17:48:55;10.10;42.60
51476;DHT22;37554;50.362;7.568;2022-12-16T17:51:40;10.10;42.60
51476;DHT22;37554;50.362;7.568;2022-12-16T17:54:24;10.10;42.60
51476;DHT22;37554;50.362;7.568;2022-12-16T17:57:09;10.10;42.60
51476;DHT22;37554;50.362;7.568;2022-12-16T17:59:54;10.10;42.50
51476;DHT22;37554;50.362;7.568;2022-12-16T18:02:38;10.10;42.50
51476;DHT22;37554;50.362;7.568;2022-12-16T18:05:22;10.10;43.10
51476;DHT22;37554;50.362;7.568;2022-12-16T18:08:06;10.10;42.40
51476;DHT22;37554;50.362;7.568;2022-12-16T18:10:55;10.10;42.30
51476;DHT22;37554;50.362;7.568;2022-12-16T18:13:40;10.10;42.30
51476;DHT22;37554;50.362;7.568;2022-12-16T18:16:25;10.10;42.40
51476;DHT22;37554;50.362;7.568;2022-12-16T18:19:13;10.10;42.20
51476;DHT22;37554;50.362;7.568;2022-12-16T18:21:58;10.10;42.30
51476;DHT22;37554;50.362;7.568;2022-12-16T18:24:42;10.10;42.20
51476;DHT22;37554;50.362;7.568;2022-12-16T18:27:26;10.10;42.20
51476;DHT22;37554;50.362;7.568;2022-12-16T18:30:11;10.10;42.00
51476;DHT22;37554;50.362;7.568;2022-12-16T18:32:56;10.10;42.00
51476;DHT22;37554;50.362;7.568;2022-12-16T18:35:40;10.10;42.00
51476;DHT22;37554;50.362;7.568;2022-12-16T18:38:24;10.10;41.90
51476;DHT22;37554;50.362;7.568;2022-12-16T18:41:17;10.00;41.80
51476;DHT22;37554;50.362;7.568;2022-12-16T18:44:02;10.00;41.80
51476;DHT22;37554;50.362;7.568;2022-12-16T18:46:47;10.10;41.80
51476;DHT22;37554;50.362;7.568;2022-12-16T18:49:31;10.00;41.60
51476;DHT22;37554;50.362;7.568;2022-12-16T18:52:17;10.00;41.60
51476;DHT22;37554;50.362;7.568;2022-12-16T18:55:01;10.00;41.60
51476;DHT22;37554;50.362;7.568;2022-12-16T18:57:45;9.90;41.50
51476;DHT22;37554;50.362;7.568;2022-12-16T19:00:29;9.80;41.60
51476;DHT22;37554;50.362;7.568;2022-12-16T19:03:14;9.70;41.70
51476;DHT22;37554;50.362;7.568;2022-12-16T19:05:58;9.70;41.80
51476;DHT22;37554;50.362;7.568;2022-12-16T19:08:42;9.70;41.70